sensor_id;sensor_type;location;lat;lon;timestamp;P1;durP1;ratioP1;P2;durP2;ratioP2
18776;SDS011;9517;51.174;4.160;2023-03-01T00:01:31;23.47;;;12.10;;
18776;SDS011;9517;51.174;4.160;2023-03-01T00:03:58;21.47;;;11.83;;
18776;SDS011;9517;51.174;4.160;2023-03-01T00:06:26;19.93;;;11.07;;
18776;SDS011;9517;51.174;4.160;2023-03-01T00:08:53;23.93;;;12.63;;
18776;SDS011;9517;51.174;4.160;2023-03-01T00:11:21;23.00;;;12.37;;
18776;SDS011;9517;51.174;4.160;2023-03-01T00:13:51;21.80;;;11.40;;
18776;SDS011;9517;51.174;4.160;2023-03-01T00:16:22;22.30;;;11.43;;
18776;SDS011;9517;51.174;4.160;2023-03-01T00:18:51;23.80;;;11.97;;
18776;SDS011;9517;51.174;4.160;2023-03-01T00:21:19;19.27;;;11.40;;
18776;SDS011;9517;51.174;4.160;2023-03-01T00:23:47;23.17;;;12.13;;
18776;SDS011;9517;51.174;4.160;2023-03-01T00:26:14;22.47;;;11.20;;
18776;SDS011;9517;51.174;4.160;2023-03-01T00:28:43;21.90;;;12.47;;
18776;SDS011;9517;51.174;4.160;2023-03-01T00:31:11;22.13;;;12.60;;
18776;SDS011;9517;51.174;4.160;2023-03-01T00:33:41;26.83;;;12.63;;
18776;SDS011;9517;51.174;4.160;2023-03-01T00:36:09;25.33;;;12.47;;
18776;SDS011;9517;51.174;4.160;2023-03-01T00:38:38;22.87;;;11.60;;
18776;SDS011;9517;51.174;4.160;2023-03-01T00:41:07;19.17;;;11.50;;
18776;SDS011;9517;51.174;4.160;2023-03-01T00:43:36;22.40;;;11.77;;
18776;SDS011;9517;51.174;4.160;2023-03-01T00:46:03;24.30;;;12.13;;
18776;SDS011;9517;51.174;4.160;2023-03-01T00:48:32;21.67;;;11.47;;
18776;SDS011;9517;51.174;4.160;2023-03-01T00:51:05;19.83;;;11.90;;
18776;SDS011;9517;51.174;4.160;2023-03-01T00:53:33;23.93;;;12.20;;
18776;SDS011;9517;51.174;4.160;2023-03-01T00:56:00;21.50;;;11.87;;
18776;SDS011;9517;51.174;4.160;2023-03-01T00:58:28;25.63;;;12.90;;
18776;SDS011;9517;51.174;4.160;2023-03-01T01:00:55;22.10;;;12.37;;
18776;SDS011;9517;51.174;4.160;2023-03-01T01:03:22;23.30;;;12.90;;
18776;SDS011;9517;51.174;4.160;2023-03-01T01:05:50;27.53;;;11.83;;
18776;SDS011;9517;51.174;4.160;2023-03-01T01:08:19;22.97;;;11.93;;
18776;SDS011;9517;51.174;4.160;2023-03-01T01:10:47;20.97;;;12.47;;
18776;SDS011;9517;51.174;4.160;2023-03-01T01:13:14;19.67;;;11.80;;
18776;SDS011;9517;51.174;4.160;2023-03-01T01:15:41;21.17;;;11.73;;
18776;SDS011;9517;51.174;4.160;2023-03-01T01:18:11;24.57;;;12.80;;
18776;SDS011;9517;51.174;4.160;2023-03-01T01:20:38;25.40;;;12.87;;
18776;SDS011;9517;51.174;4.160;2023-03-01T01:23:05;21.37;;;12.20;;
18776;SDS011;9517;51.174;4.160;2023-03-01T01:25:35;21.70;;;12.90;;
18776;SDS011;9517;51.174;4.160;2023-03-01T01:28:03;20.13;;;11.77;;
18776;SDS011;9517;51.174;4.160;2023-03-01T01:30:30;23.63;;;12.13;;
18776;SDS011;9517;51.174;4.160;2023-03-01T01:32:57;24.00;;;13.00;;
18776;SDS011;9517;51.174;4.160;2023-03-01T01:35:24;21.07;;;12.80;;
18776;SDS011;9517;51.174;4.160;2023-03-01T01:37:51;24.23;;;12.60;;
18776;SDS011;9517;51.174;4.160;2023-03-01T01:40:18;23.57;;;12.20;;
18776;SDS011;9517;51.174;4.160;2023-03-01T01:42:47;22.43;;;12.50;;
18776;SDS011;9517;51.174;4.160;2023-03-01T01:45:31;25.87;;;11.83;;
18776;SDS011;9517;51.174;4.160;2023-03-01T01:48:00;25.87;;;12.90;;
18776;SDS011;9517;51.174;4.160;2023-03-01T01:50:31;22.63;;;12.27;;
18776;SDS011;9517;51.174;4.160;2023-03-01T01:53:05;19.77;;;11.73;;
18776;SDS011;9517;51.174;4.160;2023-03-01T01:55:34;25.00;;;12.80;;
18776;SDS011;9517;51.174;4.160;2023-03-01T01:58:07;26.23;;;13.50;;
18776;SDS011;9517;51.174;4.160;2023-03-01T02:00:37;20.90;;;12.13;;
18776;SDS011;9517;51.174;4.160;2023-03-01T02:03:06;24.10;;;12.80;;
18776;SDS011;9517;51.174;4.160;2023-03-01T02:05:38;24.37;;;12.63;;
18776;SDS011;9517;51.174;4.160;2023-03-01T02:08:10;23.70;;;12.73;;
18776;SDS011;9517;51.174;4.160;2023-03-01T02:10:39;21.70;;;12.20;;
18776;SDS011;9517;51.174;4.160;2023-03-01T02:13:08;23.10;;;13.13;;
18776;SDS011;9517;51.174;4.160;2023-03-01T02:15:37;24.10;;;13.60;;
18776;SDS011;9517;51.174;4.160;2023-03-01T02:18:05;26.37;;;13.40;;
18776;SDS011;9517;51.174;4.160;2023-03-01T02:20:34;22.47;;;13.13;;
18776;SDS011;9517;51.174;4.160;2023-03-01T02:23:11;22.23;;;12.30;;
18776;SDS011;9517;51.174;4.160;2023-03-01T02:25:41;22.20;;;13.57;;
18776;SDS011;9517;51.174;4.160;2023-03-01T02:28:22;24.57;;;13.07;;
18776;SDS011;9517;51.174;4.160;2023-03-01T02:30:52;27.10;;;13.70;;
18776;SDS011;9517;51.174;4.160;2023-03-01T02:33:38;29.20;;;14.37;;
18776;SDS011;9517;51.174;4.160;2023-03-01T02:36:06;27.23;;;13.70;;
18776;SDS011;9517;51.174;4.160;2023-03-01T02:38:38;24.73;;;13.77;;
18776;SDS011;9517;51.174;4.160;2023-03-01T02:41:05;24.97;;;14.17;;
18776;SDS011;9517;51.174;4.160;2023-03-01T02:43:35;29.30;;;14.17;;
18776;SDS011;9517;51.174;4.160;2023-03-01T02:46:04;23.67;;;14.03;;
18776;SDS011;9517;51.174;4.160;2023-03-01T02:48:42;25.93;;;13.87;;
18776;SDS011;9517;51.174;4.160;2023-03-01T02:51:11;23.13;;;13.60;;
18776;SDS011;9517;51.174;4.160;2023-03-01T02:53:55;27.77;;;14.83;;
18776;SDS011;9517;51.174;4.160;2023-03-01T02:56:31;27.97;;;14.87;;
18776;SDS011;9517;51.174;4.160;2023-03-01T02:59:00;27.50;;;14.50;;
18776;SDS011;9517;51.174;4.160;2023-03-01T03:01:27;25.30;;;14.73;;
18776;SDS011;9517;51.174;4.160;2023-03-01T03:04:04;28.23;;;15.33;;
18776;SDS011;9517;51.174;4.160;2023-03-01T03:06:31;28.33;;;15.20;;
18776;SDS011;9517;51.174;4.160;2023-03-01T03:08:59;28.20;;;15.80;;
18776;SDS011;9517;51.174;4.160;2023-03-01T03:11:26;27.07;;;15.53;;
18776;SDS011;9517;51.174;4.160;2023-03-01T03:13:53;27.03;;;15.67;;
18776;SDS011;9517;51.174;4.160;2023-03-01T03:16:22;26.07;;;15.33;;
18776;SDS011;9517;51.174;4.160;2023-03-01T03:18:49;30.70;;;16.17;;
18776;SDS011;9517;51.174;4.160;2023-03-01T03:21:16;29.47;;;16.77;;
18776;SDS011;9517;51.174;4.160;2023-03-01T03:23:43;27.67;;;16.03;;
18776;SDS011;9517;51.174;4.160;2023-03-01T03:26:11;27.40;;;15.97;;
18776;SDS011;9517;51.174;4.160;2023-03-01T03:28:40;31.83;;;17.13;;
18776;SDS011;9517;51.174;4.160;2023-03-01T03:31:07;29.10;;;16.80;;
18776;SDS011;9517;51.174;4.160;2023-03-01T03:33:36;29.50;;;17.23;;
18776;SDS011;9517;51.174;4.160;2023-03-01T03:36:04;30.27;;;17.97;;
18776;SDS011;9517;51.174;4.160;2023-03-01T03:38:32;32.07;;;17.87;;
18776;SDS011;9517;51.174;4.160;2023-03-01T03:41:00;29.33;;;17.00;;
18776;SDS011;9517;51.174;4.160;2023-03-01T03:43:33;31.33;;;17.80;;
18776;SDS011;9517;51.174;4.160;2023-03-01T03:46:01;33.30;;;18.53;;
18776;SDS011;9517;51.174;4.160;2023-03-01T03:48:31;28.90;;;17.37;;
18776;SDS011;9517;51.174;4.160;2023-03-01T03:51:02;28.97;;;17.33;;
18776;SDS011;9517;51.174;4.160;2023-03-01T03:53:30;29.13;;;17.20;;
18776;SDS011;9517;51.174;4.160;2023-03-01T03:55:58;28.73;;;17.17;;
18776;SDS011;9517;51.174;4.160;2023-03-01T03:58:25;35.17;;;19.17;;
18776;SDS011;9517;51.174;4.160;2023-03-01T04:00:54;31.00;;;17.77;;
18776;SDS011;9517;51.174;4.160;2023-03-01T04:03:22;34.83;;;19.97;;
18776;SDS011;9517;51.174;4.160;2023-03-01T04:05:50;29.67;;;18.50;;
18776;SDS011;9517;51.174;4.160;2023-03-01T04:11:42;34.77;;;18.10;;
18776;SDS011;9517;51.174;4.160;2023-03-01T04:14:09;30.90;;;17.80;;
18776;SDS011;9517;51.174;4.160;2023-03-01T04:16:37;31.77;;;17.60;;
18776;SDS011;9517;51.174;4.160;2023-03-01T04:19:04;33.63;;;19.40;;
18776;SDS011;9517;51.174;4.160;2023-03-01T04:21:31;33.40;;;18.87;;
18776;SDS011;9517;51.174;4.160;2023-03-01T04:23:58;32.20;;;18.30;;
18776;SDS011;9517;51.174;4.160;2023-03-01T04:26:26;31.70;;;18.77;;
18776;SDS011;9517;51.174;4.160;2023-03-01T04:28:55;30.23;;;19.00;;
18776;SDS011;9517;51.174;4.160;2023-03-01T04:31:22;31.90;;;18.40;;
18776;SDS011;9517;51.174;4.160;2023-03-01T04:33:50;30.63;;;18.20;;
18776;SDS011;9517;51.174;4.160;2023-03-01T04:36:18;31.97;;;18.27;;
18776;SDS011;9517;51.174;4.160;2023-03-01T04:38:47;34.00;;;18.40;;
18776;SDS011;9517;51.174;4.160;2023-03-01T04:41:16;32.47;;;19.23;;
18776;SDS011;9517;51.174;4.160;2023-03-01T04:43:44;32.53;;;18.70;;
18776;SDS011;9517;51.174;4.160;2023-03-01T04:46:13;33.93;;;18.53;;
18776;SDS011;9517;51.174;4.160;2023-03-01T04:48:43;31.53;;;18.07;;
18776;SDS011;9517;51.174;4.160;2023-03-01T04:51:13;31.97;;;16.83;;
18776;SDS011;9517;51.174;4.160;2023-03-01T04:53:40;32.67;;;18.20;;
18776;SDS011;9517;51.174;4.160;2023-03-01T04:56:08;32.03;;;18.83;;
18776;SDS011;9517;51.174;4.160;2023-03-01T04:58:35;32.47;;;17.87;;
18776;SDS011;9517;51.174;4.160;2023-03-01T05:01:07;32.07;;;17.97;;
18776;SDS011;9517;51.174;4.160;2023-03-01T05:03:41;29.50;;;17.27;;
18776;SDS011;9517;51.174;4.160;2023-03-01T05:06:09;30.93;;;17.73;;
18776;SDS011;9517;51.174;4.160;2023-03-01T05:08:36;28.30;;;16.33;;
18776;SDS011;9517;51.174;4.160;2023-03-01T05:11:04;28.27;;;16.47;;
18776;SDS011;9517;51.174;4.160;2023-03-01T05:13:33;34.17;;;17.07;;
18776;SDS011;9517;51.174;4.160;2023-03-01T05:16:01;30.47;;;16.03;;
18776;SDS011;9517;51.174;4.160;2023-03-01T05:18:31;28.50;;;16.33;;
18776;SDS011;9517;51.174;4.160;2023-03-01T05:21:03;30.97;;;16.63;;
18776;SDS011;9517;51.174;4.160;2023-03-01T05:23:32;30.17;;;16.10;;
18776;SDS011;9517;51.174;4.160;2023-03-01T05:26:00;26.97;;;16.03;;
18776;SDS011;9517;51.174;4.160;2023-03-01T05:28:29;29.87;;;15.60;;
18776;SDS011;9517;51.174;4.160;2023-03-01T05:30:57;29.70;;;15.50;;
18776;SDS011;9517;51.174;4.160;2023-03-01T05:33:24;34.40;;;15.83;;
18776;SDS011;9517;51.174;4.160;2023-03-01T05:35:52;29.00;;;16.03;;
18776;SDS011;9517;51.174;4.160;2023-03-01T05:38:21;29.63;;;16.30;;
18776;SDS011;9517;51.174;4.160;2023-03-01T05:40:48;27.33;;;14.73;;
18776;SDS011;9517;51.174;4.160;2023-03-01T05:43:16;24.57;;;13.83;;
18776;SDS011;9517;51.174;4.160;2023-03-01T05:45:44;28.70;;;14.77;;
18776;SDS011;9517;51.174;4.160;2023-03-01T05:48:11;28.30;;;15.10;;
18776;SDS011;9517;51.174;4.160;2023-03-01T05:50:40;28.97;;;15.00;;
18776;SDS011;9517;51.174;4.160;2023-03-01T05:53:09;27.83;;;15.30;;
18776;SDS011;9517;51.174;4.160;2023-03-01T05:55:39;27.63;;;14.50;;
18776;SDS011;9517;51.174;4.160;2023-03-01T05:58:09;29.90;;;15.00;;
18776;SDS011;9517;51.174;4.160;2023-03-01T06:00:39;27.10;;;14.23;;
18776;SDS011;9517;51.174;4.160;2023-03-01T06:03:09;26.13;;;13.50;;
18776;SDS011;9517;51.174;4.160;2023-03-01T06:05:37;27.20;;;14.40;;
18776;SDS011;9517;51.174;4.160;2023-03-01T06:08:04;27.17;;;14.30;;
18776;SDS011;9517;51.174;4.160;2023-03-01T06:10:32;25.53;;;14.27;;
18776;SDS011;9517;51.174;4.160;2023-03-01T06:13:01;26.47;;;13.73;;
18776;SDS011;9517;51.174;4.160;2023-03-01T06:15:28;26.50;;;13.90;;
18776;SDS011;9517;51.174;4.160;2023-03-01T06:17:55;23.63;;;13.83;;
18776;SDS011;9517;51.174;4.160;2023-03-01T06:20:24;27.57;;;13.47;;
18776;SDS011;9517;51.174;4.160;2023-03-01T06:22:53;25.47;;;14.83;;
18776;SDS011;9517;51.174;4.160;2023-03-01T06:25:21;29.23;;;14.43;;
18776;SDS011;9517;51.174;4.160;2023-03-01T06:27:50;31.93;;;13.80;;
18776;SDS011;9517;51.174;4.160;2023-03-01T06:30:20;28.87;;;14.67;;
18776;SDS011;9517;51.174;4.160;2023-03-01T06:32:49;27.97;;;14.73;;
18776;SDS011;9517;51.174;4.160;2023-03-01T06:35:16;26.43;;;14.40;;
18776;SDS011;9517;51.174;4.160;2023-03-01T06:37:45;26.50;;;14.13;;
18776;SDS011;9517;51.174;4.160;2023-03-01T06:40:13;26.27;;;14.30;;
18776;SDS011;9517;51.174;4.160;2023-03-01T06:42:41;29.17;;;14.40;;
18776;SDS011;9517;51.174;4.160;2023-03-01T06:45:13;26.70;;;14.03;;
18776;SDS011;9517;51.174;4.160;2023-03-01T06:47:42;25.70;;;13.50;;
18776;SDS011;9517;51.174;4.160;2023-03-01T06:50:10;28.83;;;13.97;;
18776;SDS011;9517;51.174;4.160;2023-03-01T06:52:38;29.67;;;13.33;;
18776;SDS011;9517;51.174;4.160;2023-03-01T06:55:05;25.30;;;13.13;;
18776;SDS011;9517;51.174;4.160;2023-03-01T06:57:33;25.57;;;14.23;;
18776;SDS011;9517;51.174;4.160;2023-03-01T07:00:06;33.07;;;14.13;;
18776;SDS011;9517;51.174;4.160;2023-03-01T07:02:33;33.10;;;13.87;;
18776;SDS011;9517;51.174;4.160;2023-03-01T07:05:05;29.83;;;14.33;;
18776;SDS011;9517;51.174;4.160;2023-03-01T07:07:33;34.97;;;14.63;;
18776;SDS011;9517;51.174;4.160;2023-03-01T07:10:00;26.70;;;13.87;;
18776;SDS011;9517;51.174;4.160;2023-03-01T07:12:29;27.37;;;14.73;;
18776;SDS011;9517;51.174;4.160;2023-03-01T07:14:56;33.70;;;14.40;;
18776;SDS011;9517;51.174;4.160;2023-03-01T07:17:23;31.53;;;14.10;;
18776;SDS011;9517;51.174;4.160;2023-03-01T07:19:50;27.80;;;14.13;;
18776;SDS011;9517;51.174;4.160;2023-03-01T07:22:19;26.50;;;13.80;;
18776;SDS011;9517;51.174;4.160;2023-03-01T07:24:46;28.97;;;14.63;;
18776;SDS011;9517;51.174;4.160;2023-03-01T07:27:13;30.50;;;13.73;;
18776;SDS011;9517;51.174;4.160;2023-03-01T07:29:40;29.53;;;14.03;;
18776;SDS011;9517;51.174;4.160;2023-03-01T07:32:07;26.43;;;13.37;;
18776;SDS011;9517;51.174;4.160;2023-03-01T07:34:35;28.10;;;15.00;;
18776;SDS011;9517;51.174;4.160;2023-03-01T07:37:03;29.77;;;14.07;;
18776;SDS011;9517;51.174;4.160;2023-03-01T07:39:31;26.43;;;13.60;;
18776;SDS011;9517;51.174;4.160;2023-03-01T07:41:58;28.60;;;14.53;;
18776;SDS011;9517;51.174;4.160;2023-03-01T07:44:25;32.13;;;13.87;;
18776;SDS011;9517;51.174;4.160;2023-03-01T07:46:53;27.57;;;12.87;;
18776;SDS011;9517;51.174;4.160;2023-03-01T07:49:21;24.73;;;11.87;;
18776;SDS011;9517;51.174;4.160;2023-03-01T07:51:48;29.13;;;13.10;;
18776;SDS011;9517;51.174;4.160;2023-03-01T07:54:15;21.73;;;11.53;;
18776;SDS011;9517;51.174;4.160;2023-03-01T07:56:44;26.20;;;12.40;;
18776;SDS011;9517;51.174;4.160;2023-03-01T07:59:11;25.67;;;12.57;;
18776;SDS011;9517;51.174;4.160;2023-03-01T08:01:38;21.30;;;11.50;;
18776;SDS011;9517;51.174;4.160;2023-03-01T08:04:07;23.87;;;11.50;;
18776;SDS011;9517;51.174;4.160;2023-03-01T08:06:34;21.13;;;11.93;;
18776;SDS011;9517;51.174;4.160;2023-03-01T08:09:05;25.37;;;11.40;;
18776;SDS011;9517;51.174;4.160;2023-03-01T08:11:33;22.40;;;11.97;;
18776;SDS011;9517;51.174;4.160;2023-03-01T08:14:02;21.90;;;12.13;;
18776;SDS011;9517;51.174;4.160;2023-03-01T08:16:29;21.37;;;11.47;;
18776;SDS011;9517;51.174;4.160;2023-03-01T08:18:57;23.93;;;11.10;;
18776;SDS011;9517;51.174;4.160;2023-03-01T08:21:29;22.00;;;11.53;;
18776;SDS011;9517;51.174;4.160;2023-03-01T08:23:56;25.33;;;11.43;;
18776;SDS011;9517;51.174;4.160;2023-03-01T08:26:23;25.03;;;11.57;;
18776;SDS011;9517;51.174;4.160;2023-03-01T08:28:50;18.37;;;10.07;;
18776;SDS011;9517;51.174;4.160;2023-03-01T08:31:20;21.43;;;10.57;;
18776;SDS011;9517;51.174;4.160;2023-03-01T08:33:50;19.27;;;9.73;;
18776;SDS011;9517;51.174;4.160;2023-03-01T08:36:21;18.03;;;9.70;;
18776;SDS011;9517;51.174;4.160;2023-03-01T08:38:49;23.87;;;10.73;;
18776;SDS011;9517;51.174;4.160;2023-03-01T08:41:16;18.10;;;9.77;;
18776;SDS011;9517;51.174;4.160;2023-03-01T08:43:44;21.60;;;10.07;;
18776;SDS011;9517;51.174;4.160;2023-03-01T08:46:11;21.03;;;9.90;;
18776;SDS011;9517;51.174;4.160;2023-03-01T08:48:40;21.63;;;10.77;;
18776;SDS011;9517;51.174;4.160;2023-03-01T08:51:08;19.77;;;9.67;;
18776;SDS011;9517;51.174;4.160;2023-03-01T08:53:37;22.40;;;10.43;;
18776;SDS011;9517;51.174;4.160;2023-03-01T08:56:05;23.57;;;10.20;;
18776;SDS011;9517;51.174;4.160;2023-03-01T08:58:32;18.13;;;9.50;;
18776;SDS011;9517;51.174;4.160;2023-03-01T09:01:00;22.00;;;9.70;;
18776;SDS011;9517;51.174;4.160;2023-03-01T09:03:27;16.37;;;8.63;;
18776;SDS011;9517;51.174;4.160;2023-03-01T09:06:00;28.23;;;11.90;;
18776;SDS011;9517;51.174;4.160;2023-03-01T09:08:29;33.60;;;15.40;;
18776;SDS011;9517;51.174;4.160;2023-03-01T09:10:57;21.77;;;10.53;;
18776;SDS011;9517;51.174;4.160;2023-03-01T09:13:27;22.23;;;10.10;;
18776;SDS011;9517;51.174;4.160;2023-03-01T09:15:56;19.40;;;9.83;;
18776;SDS011;9517;51.174;4.160;2023-03-01T09:18:23;16.80;;;9.00;;
18776;SDS011;9517;51.174;4.160;2023-03-01T09:20:50;16.90;;;8.57;;
18776;SDS011;9517;51.174;4.160;2023-03-01T09:23:21;20.03;;;9.70;;
18776;SDS011;9517;51.174;4.160;2023-03-01T09:25:48;17.53;;;8.70;;
18776;SDS011;9517;51.174;4.160;2023-03-01T09:28:15;18.40;;;9.20;;
18776;SDS011;9517;51.174;4.160;2023-03-01T09:30:42;21.23;;;9.27;;
18776;SDS011;9517;51.174;4.160;2023-03-01T09:33:09;23.60;;;10.30;;
18776;SDS011;9517;51.174;4.160;2023-03-01T09:35:39;17.77;;;9.17;;
18776;SDS011;9517;51.174;4.160;2023-03-01T09:38:11;19.80;;;9.20;;
18776;SDS011;9517;51.174;4.160;2023-03-01T09:40:42;20.77;;;9.63;;
18776;SDS011;9517;51.174;4.160;2023-03-01T09:43:15;21.50;;;10.17;;
18776;SDS011;9517;51.174;4.160;2023-03-01T09:45:48;16.03;;;8.70;;
18776;SDS011;9517;51.174;4.160;2023-03-01T09:48:18;18.77;;;9.83;;
18776;SDS011;9517;51.174;4.160;2023-03-01T09:50:48;21.07;;;9.53;;
18776;SDS011;9517;51.174;4.160;2023-03-01T09:53:17;17.73;;;8.77;;
18776;SDS011;9517;51.174;4.160;2023-03-01T09:55:50;18.77;;;9.37;;
18776;SDS011;9517;51.174;4.160;2023-03-01T09:58:28;16.70;;;8.60;;
18776;SDS011;9517;51.174;4.160;2023-03-01T10:01:03;17.77;;;9.77;;
18776;SDS011;9517;51.174;4.160;2023-03-01T10:03:39;20.17;;;9.03;;
18776;SDS011;9517;51.174;4.160;2023-03-01T10:06:11;19.30;;;8.40;;
18776;SDS011;9517;51.174;4.160;2023-03-01T10:08:42;15.97;;;8.33;;
18776;SDS011;9517;51.174;4.160;2023-03-01T10:11:20;15.80;;;8.70;;
18776;SDS011;9517;51.174;4.160;2023-03-01T10:13:50;17.67;;;8.80;;
18776;SDS011;9517;51.174;4.160;2023-03-01T10:16:24;18.50;;;8.43;;
18776;SDS011;9517;51.174;4.160;2023-03-01T10:18:55;15.97;;;9.03;;
18776;SDS011;9517;51.174;4.160;2023-03-01T10:21:27;16.97;;;8.23;;
18776;SDS011;9517;51.174;4.160;2023-03-01T10:23:57;15.70;;;8.63;;
18776;SDS011;9517;51.174;4.160;2023-03-01T10:26:43;15.83;;;8.47;;
18776;SDS011;9517;51.174;4.160;2023-03-01T10:29:14;16.93;;;8.60;;
18776;SDS011;9517;51.174;4.160;2023-03-01T10:31:43;17.67;;;8.03;;
18776;SDS011;9517;51.174;4.160;2023-03-01T10:34:12;15.97;;;8.30;;
18776;SDS011;9517;51.174;4.160;2023-03-01T10:36:41;17.90;;;8.73;;
18776;SDS011;9517;51.174;4.160;2023-03-01T10:39:12;18.27;;;8.97;;
18776;SDS011;9517;51.174;4.160;2023-03-01T10:41:54;16.90;;;8.30;;
18776;SDS011;9517;51.174;4.160;2023-03-01T10:44:36;14.60;;;7.63;;
18776;SDS011;9517;51.174;4.160;2023-03-01T10:47:12;15.87;;;8.47;;
18776;SDS011;9517;51.174;4.160;2023-03-01T10:49:51;16.57;;;8.33;;
18776;SDS011;9517;51.174;4.160;2023-03-01T10:52:23;15.47;;;8.00;;
18776;SDS011;9517;51.174;4.160;2023-03-01T10:54:54;15.47;;;7.87;;
18776;SDS011;9517;51.174;4.160;2023-03-01T11:05:52;15.70;;;7.47;;
18776;SDS011;9517;51.174;4.160;2023-03-01T11:08:38;16.33;;;7.67;;
18776;SDS011;9517;51.174;4.160;2023-03-01T11:11:12;14.97;;;8.10;;
18776;SDS011;9517;51.174;4.160;2023-03-01T11:13:54;15.50;;;8.50;;
18776;SDS011;9517;51.174;4.160;2023-03-01T11:16:23;16.67;;;7.63;;
18776;SDS011;9517;51.174;4.160;2023-03-01T11:18:56;19.77;;;8.03;;
18776;SDS011;9517;51.174;4.160;2023-03-01T11:21:25;17.73;;;7.77;;
18776;SDS011;9517;51.174;4.160;2023-03-01T11:23:55;16.10;;;8.20;;
18776;SDS011;9517;51.174;4.160;2023-03-01T11:26:26;14.70;;;7.10;;
18776;SDS011;9517;51.174;4.160;2023-03-01T11:28:58;15.90;;;7.80;;
18776;SDS011;9517;51.174;4.160;2023-03-01T11:31:30;15.40;;;7.80;;
18776;SDS011;9517;51.174;4.160;2023-03-01T11:33:59;15.40;;;8.23;;
18776;SDS011;9517;51.174;4.160;2023-03-01T11:36:34;16.17;;;8.10;;
18776;SDS011;9517;51.174;4.160;2023-03-01T11:39:07;16.67;;;7.90;;
18776;SDS011;9517;51.174;4.160;2023-03-01T11:41:43;15.17;;;7.73;;
18776;SDS011;9517;51.174;4.160;2023-03-01T11:44:23;15.53;;;7.87;;
18776;SDS011;9517;51.174;4.160;2023-03-01T11:47:02;15.70;;;7.60;;
18776;SDS011;9517;51.174;4.160;2023-03-01T11:50:07;14.90;;;7.67;;
18776;SDS011;9517;51.174;4.160;2023-03-01T11:52:46;15.90;;;7.53;;
18776;SDS011;9517;51.174;4.160;2023-03-01T11:55:35;14.47;;;7.50;;
18776;SDS011;9517;51.174;4.160;2023-03-01T12:01:17;17.10;;;7.73;;
18776;SDS011;9517;51.174;4.160;2023-03-01T12:03:57;15.07;;;6.97;;
18776;SDS011;9517;51.174;4.160;2023-03-01T12:06:47;12.87;;;7.23;;
18776;SDS011;9517;51.174;4.160;2023-03-01T12:09:22;12.17;;;7.20;;
18776;SDS011;9517;51.174;4.160;2023-03-01T12:12:07;13.57;;;6.73;;
18776;SDS011;9517;51.174;4.160;2023-03-01T12:14:56;15.67;;;7.63;;
18776;SDS011;9517;51.174;4.160;2023-03-01T12:17:39;16.17;;;7.33;;
18776;SDS011;9517;51.174;4.160;2023-03-01T12:20:21;18.93;;;7.73;;
18776;SDS011;9517;51.174;4.160;2023-03-01T12:23:00;16.37;;;7.47;;
18776;SDS011;9517;51.174;4.160;2023-03-01T12:25:41;16.43;;;7.10;;
18776;SDS011;9517;51.174;4.160;2023-03-01T12:28:19;14.23;;;7.10;;
18776;SDS011;9517;51.174;4.160;2023-03-01T12:31:10;16.37;;;6.73;;
18776;SDS011;9517;51.174;4.160;2023-03-01T12:34:01;12.30;;;6.30;;
18776;SDS011;9517;51.174;4.160;2023-03-01T12:36:41;14.23;;;7.13;;
18776;SDS011;9517;51.174;4.160;2023-03-01T12:39:30;13.47;;;7.30;;
18776;SDS011;9517;51.174;4.160;2023-03-01T12:42:09;15.27;;;6.80;;
18776;SDS011;9517;51.174;4.160;2023-03-01T12:44:52;12.30;;;6.33;;
18776;SDS011;9517;51.174;4.160;2023-03-01T12:47:49;13.83;;;6.30;;
18776;SDS011;9517;51.174;4.160;2023-03-01T12:50:26;14.10;;;6.67;;
18776;SDS011;9517;51.174;4.160;2023-03-01T12:52:58;14.30;;;6.70;;
18776;SDS011;9517;51.174;4.160;2023-03-01T12:55:28;12.47;;;6.60;;
18776;SDS011;9517;51.174;4.160;2023-03-01T12:58:00;12.57;;;6.67;;
18776;SDS011;9517;51.174;4.160;2023-03-01T13:00:37;12.83;;;6.23;;
18776;SDS011;9517;51.174;4.160;2023-03-01T13:03:14;13.73;;;6.93;;
18776;SDS011;9517;51.174;4.160;2023-03-01T13:05:55;13.40;;;6.13;;
18776;SDS011;9517;51.174;4.160;2023-03-01T13:08:31;12.90;;;6.73;;
18776;SDS011;9517;51.174;4.160;2023-03-01T13:11:11;11.87;;;6.07;;
18776;SDS011;9517;51.174;4.160;2023-03-01T13:13:43;12.97;;;6.70;;
18776;SDS011;9517;51.174;4.160;2023-03-01T13:19:08;12.03;;;6.70;;
18776;SDS011;9517;51.174;4.160;2023-03-01T13:21:42;14.23;;;6.53;;
18776;SDS011;9517;51.174;4.160;2023-03-01T13:24:26;14.07;;;6.47;;
18776;SDS011;9517;51.174;4.160;2023-03-01T13:27:08;13.43;;;6.47;;
18776;SDS011;9517;51.174;4.160;2023-03-01T13:29:46;14.07;;;7.10;;
18776;SDS011;9517;51.174;4.160;2023-03-01T13:32:19;13.30;;;6.87;;
18776;SDS011;9517;51.174;4.160;2023-03-01T13:34:48;12.93;;;6.63;;
18776;SDS011;9517;51.174;4.160;2023-03-01T13:37:22;13.63;;;6.97;;
18776;SDS011;9517;51.174;4.160;2023-03-01T13:39:56;15.00;;;7.13;;
18776;SDS011;9517;51.174;4.160;2023-03-01T13:42:34;15.43;;;6.80;;
18776;SDS011;9517;51.174;4.160;2023-03-01T13:45:19;13.33;;;6.83;;
18776;SDS011;9517;51.174;4.160;2023-03-01T13:47:50;13.73;;;6.43;;
18776;SDS011;9517;51.174;4.160;2023-03-01T13:50:24;14.40;;;6.60;;
18776;SDS011;9517;51.174;4.160;2023-03-01T13:52:56;16.23;;;6.30;;
18776;SDS011;9517;51.174;4.160;2023-03-01T13:55:27;13.30;;;6.83;;
18776;SDS011;9517;51.174;4.160;2023-03-01T13:58:04;15.03;;;6.70;;
18776;SDS011;9517;51.174;4.160;2023-03-01T14:00:41;14.17;;;6.93;;
18776;SDS011;9517;51.174;4.160;2023-03-01T14:03:12;13.37;;;6.30;;
18776;SDS011;9517;51.174;4.160;2023-03-01T14:05:42;13.13;;;6.87;;
18776;SDS011;9517;51.174;4.160;2023-03-01T14:08:22;12.43;;;6.30;;
18776;SDS011;9517;51.174;4.160;2023-03-01T14:10:54;12.60;;;6.90;;
18776;SDS011;9517;51.174;4.160;2023-03-01T14:16:58;17.57;;;7.33;;
18776;SDS011;9517;51.174;4.160;2023-03-01T14:19:34;13.97;;;6.47;;
18776;SDS011;9517;51.174;4.160;2023-03-01T14:22:07;12.77;;;6.67;;
18776;SDS011;9517;51.174;4.160;2023-03-01T14:24:46;14.33;;;6.53;;
18776;SDS011;9517;51.174;4.160;2023-03-01T14:27:16;13.73;;;6.90;;
18776;SDS011;9517;51.174;4.160;2023-03-01T14:29:44;12.00;;;5.90;;
18776;SDS011;9517;51.174;4.160;2023-03-01T14:32:21;13.80;;;6.80;;
18776;SDS011;9517;51.174;4.160;2023-03-01T14:34:50;13.77;;;7.17;;
18776;SDS011;9517;51.174;4.160;2023-03-01T14:37:19;13.63;;;7.10;;
18776;SDS011;9517;51.174;4.160;2023-03-01T14:39:49;15.60;;;7.60;;
18776;SDS011;9517;51.174;4.160;2023-03-01T14:42:17;12.37;;;6.77;;
18776;SDS011;9517;51.174;4.160;2023-03-01T14:44:46;13.73;;;6.57;;
18776;SDS011;9517;51.174;4.160;2023-03-01T14:47:16;15.63;;;7.10;;
18776;SDS011;9517;51.174;4.160;2023-03-01T14:49:53;13.10;;;7.40;;
18776;SDS011;9517;51.174;4.160;2023-03-01T14:52:25;14.93;;;8.10;;
18776;SDS011;9517;51.174;4.160;2023-03-01T14:55:01;17.80;;;8.33;;
18776;SDS011;9517;51.174;4.160;2023-03-01T14:57:30;14.83;;;7.30;;
18776;SDS011;9517;51.174;4.160;2023-03-01T14:59:58;12.03;;;6.83;;
18776;SDS011;9517;51.174;4.160;2023-03-01T15:02:30;13.97;;;7.30;;
18776;SDS011;9517;51.174;4.160;2023-03-01T15:04:58;15.10;;;7.73;;
18776;SDS011;9517;51.174;4.160;2023-03-01T15:07:30;14.23;;;7.00;;
18776;SDS011;9517;51.174;4.160;2023-03-01T15:10:02;16.27;;;6.97;;
18776;SDS011;9517;51.174;4.160;2023-03-01T15:12:35;16.00;;;7.20;;
18776;SDS011;9517;51.174;4.160;2023-03-01T15:15:19;14.60;;;7.10;;
18776;SDS011;9517;51.174;4.160;2023-03-01T15:17:50;15.37;;;7.60;;
18776;SDS011;9517;51.174;4.160;2023-03-01T15:20:22;12.73;;;6.90;;
18776;SDS011;9517;51.174;4.160;2023-03-01T15:22:52;15.53;;;7.60;;
18776;SDS011;9517;51.174;4.160;2023-03-01T15:25:22;17.40;;;7.20;;